Time;durP1;ratioP1;P1;durP2;ratioP2;P2;SDS_P1;SDS_P2;PMS_P1;PMS_P2;Temp;Humidity;BMP_temperature;BMP_pressure;BME280_temperature;BME280_humidity;BME280_pressure;Samples;Min_cycle;Max_cycle;Signal;HPM_P1;HPM_P2
2023/03/18 00:00:39;;;;;;;15.65;9.70;;;18.50;46.10;;;;;;4959300;29;20606;-58
2023/03/18 00:03:07;;;;;;;15.50;9.32;;;18.50;46.10;;;;;;4957493;28;20226;-57
2023/03/18 00:05:34;;;;;;;16.27;9.98;;;18.50;46.10;;;;;;4957738;28;20695;-57
2023/03/18 00:08:03;;;;;;;14.48;9.48;;;18.40;45.90;;;;;;4958894;29;20546;-57
2023/03/18 00:10:30;;;;;;;15.05;9.63;;;18.40;46.10;;;;;;4959084;29;20242;-57
2023/03/18 00:12:58;;;;;;;15.73;9.38;;;18.40;46.10;;;;;;4957465;29;20195;-57
2023/03/18 00:15:26;;;;;;;15.30;9.95;;;18.40;46.10;;;;;;4958526;28;20652;-57
2023/03/18 00:17:53;;;;;;;15.00;9.68;;;18.30;46.10;;;;;;4957219;29;20210;-57
2023/03/18 00:20:27;;;;;;;17.42;9.75;;;18.30;46.10;;;;;;4957656;29;20221;-57
2023/03/18 00:22:56;;;;;;;14.75;8.80;;;18.30;46.10;;;;;;4957302;29;20243;-57
2023/03/18 00:25:23;;;;;;;14.70;8.93;;;18.30;46.10;;;;;;4957043;28;20313;-57
2023/03/18 00:27:50;;;;;;;13.63;8.88;;;18.30;46.10;;;;;;4958571;29;20198;-57
2023/03/18 00:30:17;;;;;;;14.27;8.85;;;18.30;46.20;;;;;;4958374;29;20195;-57
2023/03/18 00:32:46;;;;;;;17.30;9.73;;;18.30;46.20;;;;;;4956854;29;20201;-57
2023/03/18 00:35:15;;;;;;;15.43;9.02;;;18.20;46.20;;;;;;4958231;28;20229;-57
2023/03/18 00:37:42;;;;;;;13.20;8.68;;;18.20;46.20;;;;;;4956878;29;20199;-57
2023/03/18 00:40:16;;;;;;;15.23;8.80;;;18.20;46.20;;;;;;4956668;28;20199;-57
2023/03/18 00:42:49;;;;;;;13.77;8.88;;;18.20;46.30;;;;;;4956636;29;20214;-57
2023/03/18 00:45:17;;;;;;;12.45;8.10;;;18.20;46.40;;;;;;4956591;28;20222;-57
2023/03/18 00:47:48;;;;;;;12.82;8.35;;;18.20;46.40;;;;;;4953707;29;20292;-54
2023/03/18 00:50:25;;;;;;;13.40;8.45;;;18.20;46.40;;;;;;4954027;29;20214;-58
2023/03/18 00:52:58;;;;;;;12.35;7.80;;;18.10;46.40;;;;;;4953233;29;20205;-57
2023/03/18 00:55:33;;;;;;;14.23;7.63;;;18.10;46.40;;;;;;4953135;28;20222;-54
2023/03/18 00:58:01;;;;;;;12.73;8.20;;;18.10;46.40;;;;;;4953768;29;20198;-57
2023/03/18 01:00:30;;;;;;;13.13;7.88;;;18.10;46.50;;;;;;4953813;28;20195;-57
2023/03/18 01:03:00;;;;;;;13.30;7.68;;;18.10;46.50;;;;;;4952574;28;20369;-55
2023/03/18 01:05:34;;;;;;;15.55;8.02;;;18.10;46.50;;;;;;4952326;28;20305;-55
2023/03/18 01:08:04;;;;;;;11.52;7.22;;;18.00;46.40;;;;;;4951814;28;20253;-55
2023/03/18 01:10:35;;;;;;;11.50;7.60;;;18.00;47.00;;;;;;4954446;28;20226;-55
2023/03/18 01:13:05;;;;;;;12.50;7.82;;;18.00;46.50;;;;;;4953020;29;20278;-55
2023/03/18 01:15:36;;;;;;;11.13;7.97;;;18.00;46.50;;;;;;4955261;28;20214;-55
2023/03/18 01:18:04;;;;;;;14.02;7.70;;;18.00;46.50;;;;;;4954254;28;20205;-54
2023/03/18 01:20:34;;;;;;;11.20;7.70;;;18.00;46.50;;;;;;4955736;29;20195;-55
2023/03/18 01:23:08;;;;;;;10.25;7.00;;;17.90;46.40;;;;;;4953894;28;20215;-55
2023/03/18 01:25:37;;;;;;;13.45;6.88;;;17.90;46.40;;;;;;4953193;28;20297;-56
2023/03/18 01:28:05;;;;;;;12.13;7.22;;;17.90;46.40;;;;;;4953031;28;20225;-55
2023/03/18 01:30:37;;;;;;;12.20;7.60;;;17.90;46.40;;;;;;4953129;29;20333;-55
2023/03/18 01:33:07;;;;;;;12.32;7.10;;;17.90;46.50;;;;;;4953822;29;20302;-54
2023/03/18 01:35:37;;;;;;;9.48;6.78;;;17.90;46.50;;;;;;4953825;28;20223;-54
2023/03/18 01:38:05;;;;;;;10.85;6.80;;;17.90;46.50;;;;;;4954090;29;20659;-55
2023/03/18 01:40:35;;;;;;;11.70;7.07;;;17.90;46.60;;;;;;4953024;29;20233;-55
2023/03/18 01:43:22;;;;;;;11.15;6.80;;;17.80;46.50;;;;;;4952487;29;20396;-55
2023/03/18 01:45:53;;;;;;;11.07;6.88;;;17.80;46.60;;;;;;4952772;28;20714;-55
2023/03/18 01:48:24;;;;;;;10.02;6.30;;;17.80;46.50;;;;;;4952117;28;20195;-55
2023/03/18 01:51:04;;;;;;;10.85;6.85;;;17.80;46.60;;;;;;4953076;29;20195;-55
2023/03/18 01:53:34;;;;;;;10.95;7.00;;;17.80;46.70;;;;;;4952026;29;20202;-55
2023/03/18 01:56:03;;;;;;;11.18;6.72;;;17.70;46.70;;;;;;4952324;28;20219;-55
2023/03/18 01:58:33;;;;;;;9.82;6.50;;;17.70;46.70;;;;;;4952770;28;20267;-55
2023/03/18 02:01:05;;;;;;;10.43;6.32;;;17.70;46.70;;;;;;4952859;28;20198;-55
2023/03/18 02:03:38;;;;;;;10.15;6.28;;;17.70;46.70;;;;;;4951597;28;20246;-55
2023/03/18 02:06:11;;;;;;;10.95;6.97;;;17.70;46.70;;;;;;4952050;28;20712;-55
2023/03/18 02:08:39;;;;;;;10.82;6.68;;;17.70;46.80;;;;;;4951240;29;20285;-55
2023/03/18 02:11:08;;;;;;;7.68;5.88;;;17.70;46.80;;;;;;4951257;29;20330;-57
2023/03/18 02:13:36;;;;;;;10.65;6.43;;;17.70;46.90;;;;;;4952474;29;20191;-57
2023/03/18 02:16:06;;;;;;;8.70;6.45;;;17.70;46.90;;;;;;4951976;28;20629;-57
2023/03/18 02:18:50;;;;;;;9.30;6.13;;;17.70;46.90;;;;;;4950810;28;20660;-57
2023/03/18 02:21:24;;;;;;;8.68;6.10;;;17.70;46.90;;;;;;4951064;29;20226;-57
2023/03/18 02:24:05;;;;;;;9.32;6.18;;;17.70;46.90;;;;;;4950944;28;20691;-55
2023/03/18 02:26:43;;;;;;;10.10;6.35;;;17.60;46.80;;;;;;4951134;29;20632;-56
2023/03/18 02:29:17;;;;;;;6.43;5.13;;;17.70;46.90;;;;;;4951981;29;20214;-55
2023/03/18 02:31:52;;;;;;;9.38;6.15;;;17.60;46.80;;;;;;4951607;29;20211;-56
2023/03/18 02:34:23;;;;;;;8.05;6.13;;;17.60;46.70;;;;;;4951783;28;20214;-55
2023/03/18 02:36:56;;;;;;;9.48;6.25;;;17.60;46.80;;;;;;4951283;29;20278;-56
2023/03/18 02:39:25;;;;;;;8.77;6.40;;;17.60;47.40;;;;;;4952207;29;20199;-56
2023/03/18 02:41:55;;;;;;;7.88;5.63;;;17.60;46.70;;;;;;4950864;29;20669;-55
2023/03/18 02:44:24;;;;;;;9.52;7.03;;;17.60;46.80;;;;;;4950836;28;20222;-56
2023/03/18 02:47:20;;;;;;;8.95;6.22;;;17.60;46.80;;;;;;4930223;28;20203;-56
2023/03/18 02:49:51;;;;;;;8.68;6.30;;;17.60;46.80;;;;;;4950914;29;20332;-56
2023/03/18 02:52:21;;;;;;;7.80;5.78;;;17.60;46.80;;;;;;4951676;29;20294;-55
2023/03/18 02:55:11;;;;;;;9.63;5.85;;;17.60;46.70;;;;;;4953727;28;20305;-56
2023/03/18 02:57:51;;;;;;;8.23;5.57;;;17.60;46.80;;;;;;4951508;29;20198;-57
2023/03/18 03:00:20;;;;;;;8.10;5.82;;;17.60;46.80;;;;;;4951083;29;20206;-56
2023/03/18 03:02:53;;;;;;;7.88;6.00;;;17.60;46.90;;;;;;4912053;29;1130625;-55
2023/03/18 03:05:20;;;;;;;8.20;5.43;;;17.60;46.90;;;;;;4951333;28;20620;-55
2023/03/18 03:07:48;;;;;;;8.45;5.32;;;17.60;46.90;;;;;;4952205;29;20233;-55
2023/03/18 03:10:17;;;;;;;8.65;5.82;;;17.60;47.00;;;;;;4951535;28;20290;-55
2023/03/18 03:12:57;;;;;;;7.90;5.13;;;17.50;46.90;;;;;;4952072;29;20190;-55
2023/03/18 03:15:28;;;;;;;7.03;5.15;;;17.50;46.90;;;;;;4951869;28;20222;-55
2023/03/18 03:18:02;;;;;;;7.35;4.93;;;17.50;46.90;;;;;;4952692;29;20258;-55
2023/03/18 03:20:32;;;;;;;7.30;5.28;;;17.50;46.90;;;;;;4951015;29;20377;-55
2023/03/18 03:23:01;;;;;;;7.22;5.20;;;17.50;46.90;;;;;;4951274;29;20273;-57
2023/03/18 03:25:29;;;;;;;7.47;5.55;;;17.50;46.90;;;;;;4952890;28;20215;-55
2023/03/18 03:28:01;;;;;;;6.40;5.20;;;17.50;46.90;;;;;;4950980;28;20237;-55
2023/03/18 03:30:30;;;;;;;8.68;5.25;;;17.50;47.00;;;;;;4951217;28;20599;-55
2023/03/18 03:32:57;;;;;;;6.50;5.15;;;17.40;46.90;;;;;;4952069;29;20187;-55
2023/03/18 03:35:32;;;;;;;6.80;5.32;;;17.50;47.10;;;;;;4953077;28;20241;-55
2023/03/18 03:38:00;;;;;;;7.13;5.20;;;17.40;46.90;;;;;;4951888;29;20662;-55
2023/03/18 03:40:31;;;;;;;7.07;5.15;;;17.40;46.90;;;;;;4952759;29;20246;-55
2023/03/18 03:42:59;;;;;;;6.85;4.82;;;17.40;47.00;;;;;;4951822;29;20347;-55
2023/03/18 03:45:26;;;;;;;7.70;5.25;;;17.40;46.90;;;;;;4951990;28;20223;-55
2023/03/18 03:47:57;;;;;;;6.65;4.95;;;17.40;46.90;;;;;;4953321;29;20550;-55
2023/03/18 03:50:24;;;;;;;6.40;5.00;;;17.40;46.90;;;;;;4953427;29;20198;-55
2023/03/18 03:52:54;;;;;;;6.10;4.90;;;17.40;46.90;;;;;;4952119;29;20312;-56
2023/03/18 03:55:22;;;;;;;7.35;4.88;;;17.30;46.90;;;;;;4952476;28;20221;-57
2023/03/18 03:57:51;;;;;;;6.50;4.70;;;17.40;46.90;;;;;;4952797;29;20283;-57
2023/03/18 04:00:20;;;;;;;6.75;4.95;;;17.40;46.90;;;;;;4951687;29;20278;-57
2023/03/18 04:02:55;;;;;;;6.57;4.53;;;17.40;46.90;;;;;;4951961;28;20310;-58
2023/03/18 04:05:28;;;;;;;6.30;4.25;;;17.30;46.80;;;;;;4952840;28;20218;-58
2023/03/18 04:07:59;;;;;;;8.40;4.75;;;17.30;46.70;;;;;;4952529;29;20225;-58
2023/03/18 04:10:35;;;;;;;6.22;4.70;;;17.30;46.70;;;;;;4954766;29;20210;-58
2023/03/18 04:13:05;;;;;;;5.47;4.40;;;17.30;46.80;;;;;;4953231;29;20205;-58
2023/03/18 04:15:33;;;;;;;5.82;4.65;;;17.30;46.80;;;;;;4953147;28;20237;-57
2023/03/18 04:18:10;;;;;;;6.75;4.40;;;17.30;47.10;;;;;;4952674;29;20289;-58
2023/03/18 04:20:40;;;;;;;5.75;4.28;;;17.30;47.10;;;;;;4951958;29;20195;-57
2023/03/18 04:23:19;;;;;;;5.95;4.60;;;17.30;47.70;;;;;;4951907;28;20217;-58
2023/03/18 04:25:51;;;;;;;6.90;4.25;;;17.30;47.10;;;;;;4951722;28;20219;-57
2023/03/18 04:28:18;;;;;;;6.55;4.53;;;17.30;47.00;;;;;;4951963;28;20305;-57
2023/03/18 04:30:47;;;;;;;5.57;4.13;;;17.30;47.00;;;;;;4951713;28;20309;-57
2023/03/18 04:33:25;;;;;;;6.15;4.60;;;17.30;47.00;;;;;;4951992;29;20195;-57
2023/03/18 04:35:54;;;;;;;5.95;4.65;;;17.30;46.90;;;;;;4951412;28;20608;-57
2023/03/18 04:38:22;;;;;;;6.18;3.95;;;17.30;46.90;;;;;;4951227;29;20294;-57
2023/03/18 04:40:53;;;;;;;5.90;4.55;;;17.30;47.20;;;;;;4950981;28;20265;-57
2023/03/18 04:43:24;;;;;;;5.95;4.47;;;17.40;47.30;;;;;;4954105;29;20222;-56
2023/03/18 04:45:56;;;;;;;5.07;4.13;;;17.40;47.10;;;;;;4955279;28;20227;-57
2023/03/18 04:48:25;;;;;;;5.88;4.28;;;17.40;47.00;;;;;;4956217;29;20176;-57
2023/03/18 04:50:59;;;;;;;5.10;4.50;;;17.40;46.90;;;;;;4956186;29;20249;-57
2023/03/18 04:53:35;;;;;;;5.10;4.00;;;17.50;47.00;;;;;;4955261;29;20251;-57
2023/03/18 04:56:13;;;;;;;4.88;4.00;;;17.50;46.70;;;;;;4953692;28;20552;-57
2023/03/18 04:58:52;;;;;;;5.55;4.13;;;17.50;46.70;;;;;;4954779;28;20194;-57
2023/03/18 05:01:27;;;;;;;5.30;3.97;;;17.50;46.50;;;;;;4954016;28;20209;-57
2023/03/18 05:03:55;;;;;;;5.43;4.22;;;17.50;46.40;;;;;;4954674;28;20306;-56
2023/03/18 05:06:28;;;;;;;4.53;3.83;;;17.40;46.40;;;;;;4954715;29;20222;-57
2023/03/18 05:09:04;;;;;;;5.43;3.83;;;17.40;46.40;;;;;;4954736;28;20507;-57
2023/03/18 05:11:37;;;;;;;4.40;3.72;;;17.40;46.50;;;;;;4953953;29;20742;-57
2023/03/18 05:14:15;;;;;;;5.50;4.13;;;17.40;46.50;;;;;;4954306;28;20281;-57
2023/03/18 05:16:46;;;;;;;4.55;3.38;;;17.40;46.30;;;;;;4953581;29;20242;-57
2023/03/18 05:19:15;;;;;;;5.63;3.80;;;17.40;46.40;;;;;;4953436;29;20202;-57
2023/03/18 05:21:52;;;;;;;4.50;3.65;;;17.40;46.40;;;;;;4953257;29;20205;-57
2023/03/18 05:24:24;;;;;;;6.47;3.92;;;17.40;46.30;;;;;;4953628;28;20226;-56
2023/03/18 05:26:56;;;;;;;4.32;3.63;;;17.40;46.40;;;;;;4953782;29;20244;-56
2023/03/18 05:29:29;;;;;;;4.65;3.72;;;17.40;46.40;;;;;;4954105;29;20203;-56
2023/03/18 05:32:13;;;;;;;4.45;3.20;;;17.40;46.50;;;;;;4953849;29;20206;-56
2023/03/18 05:34:44;;;;;;;4.63;3.50;;;17.40;46.50;;;;;;4952893;28;20222;-57
2023/03/18 05:37:38;;;;;;;4.47;3.70;;;17.40;46.50;;;;;;4955049;29;20735;-56
2023/03/18 05:40:10;;;;;;;5.28;3.50;;;17.30;46.50;;;;;;4953753;29;20200;-57
2023/03/18 05:42:40;;;;;;;5.95;3.38;;;17.30;46.30;;;;;;4953314;29;20198;-57
2023/03/18 05:45:09;;;;;;;5.65;3.50;;;17.30;46.30;;;;;;4951718;28;20334;-56
2023/03/18 05:47:44;;;;;;;4.93;3.50;;;17.40;46.50;;;;;;4952516;29;20597;-56
2023/03/18 05:50:18;;;;;;;5.65;3.17;;;17.30;46.40;;;;;;4953020;29;20228;-57
2023/03/18 05:52:51;;;;;;;4.45;3.55;;;17.30;46.60;;;;;;4954179;28;20696;-56
2023/03/18 05:55:23;;;;;;;4.07;3.40;;;17.30;46.50;;;;;;4952182;28;20330;-59
2023/03/18 05:57:51;;;;;;;4.43;3.40;;;17.40;46.60;;;;;;4954200;29;20210;-57
2023/03/18 06:00:21;;;;;;;4.05;3.17;;;17.40;46.70;;;;;;4953359;29;20342;-57
2023/03/18 06:02:52;;;;;;;5.97;3.30;;;17.30;46.70;;;;;;4952659;28;20660;-57
2023/03/18 06:05:21;;;;;;;4.05;2.70;;;17.40;46.70;;;;;;4952963;28;20226;-58
2023/03/18 06:07:54;;;;;;;5.50;3.08;;;17.40;46.70;;;;;;4952463;29;20210;-58
2023/03/18 06:10:25;;;;;;;5.13;3.30;;;17.40;46.90;;;;;;4952555;29;20270;-58
2023/03/18 06:12:54;;;;;;;3.47;2.88;;;17.40;47.00;;;;;;4952289;29;20203;-58
2023/03/18 06:15:22;;;;;;;4.57;3.10;;;17.40;47.10;;;;;;4952767;28;20256;-58
2023/03/18 06:17:51;;;;;;;3.42;2.80;;;17.40;47.00;;;;;;4952184;29;20199;-58
2023/03/18 06:20:19;;;;;;;5.25;3.00;;;17.40;46.70;;;;;;4953140;29;20379;-57
2023/03/18 06:22:48;;;;;;;3.80;2.95;;;17.50;46.50;;;;;;4952771;29;20207;-57
2023/03/18 06:25:20;;;;;;;5.15;3.10;;;17.50;46.30;;;;;;4952328;28;20728;-57
2023/03/18 06:27:49;;;;;;;3.20;2.90;;;17.50;46.20;;;;;;4952325;28;20518;-57
2023/03/18 06:30:20;;;;;;;3.60;2.38;;;17.50;46.10;;;;;;4953000;29;20293;-57
2023/03/18 06:32:50;;;;;;;4.20;2.55;;;17.50;46.00;;;;;;4951366;29;20671;-57
2023/03/18 06:35:22;;;;;;;3.38;2.70;;;17.60;46.10;;;;;;4951766;28;20242;-57
2023/03/18 06:37:52;;;;;;;3.53;2.70;;;17.60;46.20;;;;;;4952484;29;20537;-57
2023/03/18 06:40:22;;;;;;;5.35;2.90;;;17.60;45.90;;;;;;4951903;29;20744;-57
2023/03/18 06:42:50;;;;;;;3.58;2.90;;;17.60;46.00;;;;;;4952168;29;20691;-57
2023/03/18 06:45:53;;;;;;;4.32;3.00;;;17.60;45.70;;;;;;4980092;23;20261;-71
2023/03/18 06:48:21;;;;;;;3.53;2.65;;;17.60;45.80;;;;;;4975820;28;20194;-71
2023/03/18 06:50:49;;;;;;;3.22;2.60;;;17.70;45.80;;;;;;4970640;23;20285;-54
2023/03/18 06:53:32;;;;;;;3.85;2.80;;;17.70;45.60;;;;;;4951251;29;20186;-54
2023/03/18 06:56:01;;;;;;;3.50;2.78;;;17.70;45.60;;;;;;4952939;28;20195;-54
2023/03/18 06:58:38;;;;;;;4.10;2.90;;;17.70;45.60;;;;;;4951643;28;20233;-55
2023/03/18 07:01:12;;;;;;;4.95;3.38;;;17.80;45.60;;;;;;4950969;29;20199;-54
2023/03/18 07:03:43;;;;;;;7.28;3.00;;;17.80;45.40;;;;;;4951585;28;20225;-54
2023/03/18 07:06:13;;;;;;;5.28;3.33;;;17.90;45.40;;;;;;4951360;29;20305;-54
2023/03/18 07:08:41;;;;;;;4.53;2.60;;;17.90;45.30;;;;;;4951956;28;20250;-55
2023/03/18 07:11:10;;;;;;;4.75;2.65;;;18.00;45.30;;;;;;4951004;29;20195;-53
2023/03/18 07:13:40;;;;;;;4.47;2.90;;;18.00;45.20;;;;;;4952274;29;20246;-54
2023/03/18 07:16:17;;;;;;;4.32;2.60;;;18.20;45.20;;;;;;4952457;29;20638;-54
2023/03/18 07:18:45;;;;;;;3.63;2.40;;;18.40;44.80;;;;;;4950856;28;20226;-53
2023/03/18 07:23:43;;;;;;;3.92;3.03;;;18.70;44.60;;;;;;4957381;29;20247;-80
2023/03/18 07:26:15;;;;;;;5.53;3.33;;;18.90;44.10;;;;;;4959721;28;20209;-80
2023/03/18 07:28:44;;;;;;;4.13;2.97;;;19.10;43.40;;;;;;4957804;29;20187;-79
2023/03/18 07:31:20;;;;;;;3.83;2.85;;;19.30;43.40;;;;;;4942883;29;20250;-79
2023/03/18 07:33:53;;;;;;;4.25;3.00;;;19.40;43.10;;;;;;4959140;29;20294;-78
2023/03/18 07:36:24;;;;;;;3.38;2.65;;;19.50;42.70;;;;;;4960588;29;20199;-79
2023/03/18 07:38:56;;;;;;;3.28;2.97;;;19.70;42.50;;;;;;4962563;29;20195;-78
2023/03/18 07:41:31;;;;;;;4.28;3.20;;;19.80;42.50;;;;;;4967541;28;20203;-78
2023/03/18 07:43:59;;;;;;;4.93;3.30;;;20.00;42.20;;;;;;4960712;28;20265;-80
2023/03/18 07:46:27;;;;;;;4.40;3.10;;;20.20;42.10;;;;;;4960231;29;20265;-80
2023/03/18 07:48:57;;;;;;;4.35;3.53;;;20.30;41.90;;;;;;4959034;29;20261;-78
2023/03/18 07:51:25;;;;;;;4.82;3.53;;;20.50;41.80;;;;;;4958245;29;20210;-78
2023/03/18 07:54:02;;;;;;;3.10;2.78;;;20.70;41.80;;;;;;4960480;29;20218;-80
2023/03/18 07:56:47;;;;;;;4.03;3.22;;;20.80;41.40;;;;;;4961195;29;20264;-79
2023/03/18 07:59:31;;;;;;;3.35;2.85;;;20.90;41.10;;;;;;4962382;29;20183;-79
2023/03/18 08:02:03;;;;;;;3.53;3.03;;;21.10;41.00;;;;;;4960941;29;20249;-79
2023/03/18 08:04:31;;;;;;;5.60;3.65;;;21.20;41.00;;;;;;4961006;29;20697;-79
2023/03/18 08:07:05;;;;;;;4.10;3.10;;;21.30;40.80;;;;;;4962052;29;20292;-79
2023/03/18 08:09:43;;;;;;;5.72;2.97;;;21.40;40.80;;;;;;4959534;29;20213;-79
2023/03/18 08:12:15;;;;;;;6.28;3.58;;;21.60;40.60;;;;;;4961127;29;20223;-79
2023/03/18 08:15:08;;;;;;;6.35;3.40;;;21.70;40.60;;;;;;4962206;28;20214;-79
2023/03/18 08:17:41;;;;;;;7.00;3.70;;;21.80;40.40;;;;;;4964179;28;20199;-79
2023/03/18 08:20:32;;;;;;;7.25;3.60;;;21.90;40.50;;;;;;4965367;29;20657;-79
2023/03/18 08:23:03;;;;;;;6.50;3.90;;;22.00;40.40;;;;;;4963570;28;20217;-79
2023/03/18 08:25:31;;;;;;;8.35;4.13;;;22.10;40.20;;;;;;4959761;29;20697;-79
2023/03/18 08:28:00;;;;;;;6.65;3.65;;;22.10;40.00;;;;;;4960152;29;20214;-79
2023/03/18 08:30:29;;;;;;;7.00;3.90;;;22.20;40.10;;;;;;4959865;29;20293;-79
2023/03/18 08:32:57;;;;;;;6.90;3.72;;;22.30;40.00;;;;;;4959747;29;20227;-79
2023/03/18 08:35:24;;;;;;;6.28;3.60;;;22.40;40.20;;;;;;4961162;29;20203;-79
2023/03/18 08:37:52;;;;;;;5.45;3.25;;;22.40;39.70;;;;;;4961819;28;20282;-79
2023/03/18 08:40:23;;;;;;;5.78;3.33;;;22.50;39.80;;;;;;4962786;29;20198;-79
2023/03/18 08:42:52;;;;;;;5.55;3.35;;;22.50;39.70;;;;;;4959214;29;20259;-79
2023/03/18 08:45:21;;;;;;;5.20;3.50;;;22.60;39.40;;;;;;4959492;28;20308;-79
2023/03/18 08:47:48;;;;;;;4.97;3.45;;;22.70;38.80;;;;;;4960580;29;20289;-79
2023/03/18 08:50:21;;;;;;;4.32;3.10;;;22.70;39.20;;;;;;4961037;28;20270;-79
2023/03/18 08:52:50;;;;;;;3.58;2.80;;;22.80;39.90;;;;;;4961408;29;20199;-79
2023/03/18 08:55:20;;;;;;;4.45;2.95;;;22.80;39.90;;;;;;4944692;29;20195;-79
2023/03/18 08:57:47;;;;;;;5.20;3.42;;;22.90;39.90;;;;;;4959828;29;20206;-79
2023/03/18 09:00:18;;;;;;;4.28;3.22;;;23.00;39.80;;;;;;4959616;29;20201;-79
2023/03/18 09:02:50;;;;;;;3.45;3.00;;;23.10;40.00;;;;;;4960202;29;20199;-79
2023/03/18 09:05:18;;;;;;;4.10;3.20;;;23.10;40.10;;;;;;4959764;29;20320;-79
2023/03/18 09:07:46;;;;;;;4.65;3.05;;;23.20;40.00;;;;;;4959968;29;20210;-79
2023/03/18 09:10:17;;;;;;;5.45;3.08;;;23.20;39.60;;;;;;4959879;29;20206;-79
2023/03/18 09:12:45;;;;;;;4.30;2.80;;;23.20;39.40;;;;;;4959483;29;20274;-79
2023/03/18 09:15:14;;;;;;;4.15;2.90;;;23.30;39.30;;;;;;4959145;29;20219;-80
2023/03/18 09:17:42;;;;;;;5.15;3.42;;;23.30;39.10;;;;;;4959968;29;20203;-79
2023/03/18 09:20:14;;;;;;;4.40;2.70;;;23.40;39.20;;;;;;4959163;29;20617;-79
2023/03/18 09:22:43;;;;;;;4.30;2.80;;;23.40;38.90;;;;;;4960421;28;20195;-79
2023/03/18 09:25:10;;;;;;;3.70;2.88;;;23.40;38.90;;;;;;4959450;29;20318;-79
2023/03/18 09:27:39;;;;;;;3.78;2.92;;;23.50;38.80;;;;;;4942366;29;20732;-79
2023/03/18 09:30:09;;;;;;;3.97;3.05;;;23.50;38.70;;;;;;4943855;29;20214;-80
2023/03/18 09:32:37;;;;;;;4.38;3.05;;;23.50;38.70;;;;;;4960618;29;20513;-79
2023/03/18 09:35:08;;;;;;;4.53;2.70;;;23.50;38.70;;;;;;4943587;29;20580;-78
2023/03/18 09:37:37;;;;;;;4.03;2.85;;;23.60;38.70;;;;;;4958304;29;20249;-78
2023/03/18 09:40:09;;;;;;;3.88;2.80;;;23.60;38.70;;;;;;4958486;29;20575;-79
2023/03/18 09:42:49;;;;;;;3.40;2.60;;;23.60;38.70;;;;;;4958596;29;20577;-79
2023/03/18 09:45:20;;;;;;;4.07;3.03;;;23.70;38.60;;;;;;4959751;29;20258;-79
2023/03/18 09:48:09;;;;;;;5.93;3.10;;;23.70;38.80;;;;;;4959318;29;20598;-79
2023/03/18 09:50:43;;;;;;;4.53;2.75;;;23.70;38.50;;;;;;4958994;29;20191;-79
2023/03/18 09:53:36;;;;;;;3.90;2.50;;;23.70;39.30;;;;;;4943330;29;20312;-79
2023/03/18 09:56:03;;;;;;;3.72;2.92;;;23.70;38.50;;;;;;4958984;29;20500;-79
2023/03/18 09:58:33;;;;;;;3.17;2.65;;;23.80;38.50;;;;;;4958420;29;20210;-79
2023/03/18 10:01:03;;;;;;;4.05;2.95;;;23.70;38.30;;;;;;4958511;29;20214;-78
2023/03/18 10:03:34;;;;;;;3.38;2.90;;;23.70;38.30;;;;;;4958289;29;20222;-78
2023/03/18 10:06:04;;;;;;;3.85;2.60;;;23.70;38.40;;;;;;4957646;29;20270;-78
2023/03/18 10:08:42;;;;;;;4.38;2.75;;;23.70;38.30;;;;;;4958250;29;20205;-78
2023/03/18 10:11:15;;;;;;;3.85;2.67;;;23.70;38.30;;;;;;4958531;29;20230;-78
2023/03/18 10:13:45;;;;;;;3.67;2.45;;;23.70;38.30;;;;;;4958494;28;20219;-78
2023/03/18 10:16:18;;;;;;;3.28;2.40;;;23.70;38.30;;;;;;4958659;29;20195;-78
2023/03/18 10:18:46;;;;;;;2.72;2.40;;;23.70;38.30;;;;;;4958766;29;20191;-78
2023/03/18 10:21:19;;;;;;;3.80;2.65;;;23.70;38.30;;;;;;4957528;29;20214;-79
2023/03/18 10:23:55;;;;;;;4.03;2.47;;;23.60;38.10;;;;;;4958313;29;20223;-79
2023/03/18 10:26:28;;;;;;;3.42;2.45;;;23.60;38.30;;;;;;4958832;29;20214;-79
2023/03/18 10:29:13;;;;;;;3.47;2.50;;;23.60;38.40;;;;;;4943350;29;20276;-79
2023/03/18 10:32:12;;;;;;;3.15;2.40;;;23.60;38.30;;;;;;4958276;29;20206;-79
2023/03/18 10:34:57;;;;;;;2.97;2.45;;;23.50;38.40;;;;;;4958734;28;20242;-80
2023/03/18 10:37:33;;;;;;;2.70;2.30;;;23.50;38.50;;;;;;4943300;29;20195;-80
2023/03/18 10:40:11;;;;;;;3.03;2.72;;;23.50;38.60;;;;;;4957518;28;20195;-80
2023/03/18 10:42:50;;;;;;;4.05;2.53;;;23.40;38.60;;;;;;4957217;29;20633;-79
2023/03/18 10:45:23;;;;;;;4.40;2.60;;;23.40;38.70;;;;;;4942077;29;20619;-79
2023/03/18 10:48:00;;;;;;;2.92;2.47;;;23.30;38.50;;;;;;4957456;29;20194;-80
2023/03/18 10:50:37;;;;;;;3.15;2.40;;;23.30;38.70;;;;;;4941776;29;20191;-78
2023/03/18 10:53:12;;;;;;;3.08;2.63;;;23.30;38.70;;;;;;4957592;29;20209;-78
2023/03/18 10:55:51;;;;;;;2.88;2.55;;;23.30;38.90;;;;;;4956806;29;20237;-78
2023/03/18 10:58:23;;;;;;;3.55;2.40;;;23.30;38.70;;;;;;4956932;29;20199;-78
2023/03/18 11:00:50;;;;;;;2.95;2.65;;;23.20;39.60;;;;;;4941631;29;20193;-78
2023/03/18 11:03:22;;;;;;;2.65;2.30;;;23.20;38.80;;;;;;4957246;28;20326;-79
2023/03/18 11:05:52;;;;;;;2.55;2.22;;;23.20;38.90;;;;;;4958439;29;20414;-79
2023/03/18 11:08:33;;;;;;;3.35;2.25;;;23.20;38.90;;;;;;4958030;29;20209;-79
2023/03/18 11:11:17;;;;;;;3.45;2.40;;;23.10;39.50;;;;;;4958329;28;20202;-79
2023/03/18 11:13:51;;;;;;;3.22;2.28;;;23.10;39.00;;;;;;4942605;29;20257;-79
2023/03/18 11:16:49;;;;;;;2.42;2.22;;;23.10;39.10;;;;;;4958804;29;20194;-79
2023/03/18 11:19:30;;;;;;;2.40;2.20;;;23.00;39.00;;;;;;4956599;29;20202;-79
2023/03/18 11:22:05;;;;;;;2.85;2.50;;;23.00;39.10;;;;;;4957129;29;20313;-79
2023/03/18 11:24:38;;;;;;;2.85;2.35;;;23.00;39.10;;;;;;4956683;29;20289;-79
2023/03/18 11:27:30;;;;;;;2.80;2.40;;;23.00;39.10;;;;;;4957263;29;20267;-79
2023/03/18 11:30:00;;;;;;;2.45;2.25;;;23.00;39.10;;;;;;4958182;28;20229;-79
2023/03/18 11:32:29;;;;;;;2.47;2.28;;;22.90;39.20;;;;;;4957337;29;20226;-79
2023/03/18 11:35:00;;;;;;;2.75;2.38;;;22.80;39.30;;;;;;4957143;29;20281;-79
2023/03/18 11:37:31;;;;;;;3.15;2.65;;;22.90;39.50;;;;;;4957181;29;20202;-80
2023/03/18 11:40:21;;;;;;;2.40;2.20;;;22.90;39.50;;;;;;4956985;28;20206;-80
2023/03/18 11:42:55;;;;;;;2.58;2.20;;;22.80;39.40;;;;;;4956875;29;20198;-79
2023/03/18 11:46:04;;;;;;;4.82;2.60;;;22.90;39.50;;;;;;4941650;29;20214;-79
2023/03/18 11:48:35;;;;;;;3.08;2.40;;;22.90;39.50;;;;;;4957611;29;20269;-79
2023/03/18 11:51:10;;;;;;;2.75;2.15;;;22.90;39.60;;;;;;4956334;28;20202;-79
2023/03/18 11:53:46;;;;;;;3.92;2.35;;;22.90;39.60;;;;;;4957846;29;20222;-79
2023/03/18 11:56:16;;;;;;;2.40;2.20;;;22.90;39.60;;;;;;4959082;29;20594;-79
2023/03/18 11:59:08;;;;;;;2.80;2.40;;;22.90;39.70;;;;;;4958121;29;20644;-79
2023/03/18 12:01:44;;;;;;;2.50;2.10;;;22.90;39.80;;;;;;4973523;28;20203;-79
2023/03/18 12:04:30;;;;;;;2.70;2.30;;;22.90;39.80;;;;;;4960245;29;20225;-79
2023/03/18 12:07:11;;;;;;;2.50;2.00;;;23.00;39.90;;;;;;4962077;28;20202;-80
2023/03/18 12:09:39;;;;;;;2.67;2.25;;;22.90;39.80;;;;;;4959152;29;20261;-80
2023/03/18 12:12:19;;;;;;;2.22;2.03;;;22.90;39.80;;;;;;4960969;29;20327;-80
2023/03/18 12:14:53;;;;;;;2.30;2.00;;;23.00;40.00;;;;;;4943568;29;20292;-79
2023/03/18 12:17:27;;;;;;;2.20;2.00;;;22.90;39.90;;;;;;4959616;29;20210;-80
2023/03/18 12:20:39;;;;;;;2.35;2.05;;;23.00;40.00;;;;;;4959973;29;20198;-78
2023/03/18 12:23:21;;;;;;;2.97;2.00;;;22.90;39.90;;;;;;4957366;28;20245;-78
2023/03/18 12:25:59;;;;;;;3.03;2.20;;;22.90;40.10;;;;;;4960014;29;20233;-78
2023/03/18 12:28:40;;;;;;;2.15;1.95;;;22.90;40.10;;;;;;4959306;29;20270;-78
2023/03/18 12:31:38;;;;;;;2.47;2.05;;;22.90;40.20;;;;;;4959749;28;20183;-78
2023/03/18 12:34:13;;;;;;;2.78;2.17;;;22.90;40.30;;;;;;4958093;29;20570;-78
2023/03/18 12:36:49;;;;;;;3.08;2.15;;;22.80;40.30;;;;;;4944562;29;20243;-80
2023/03/18 12:40:02;;;;;;;2.30;2.10;;;22.90;40.40;;;;;;4959407;29;20234;-80
2023/03/18 12:42:43;;;;;;;2.20;2.00;;;22.90;40.40;;;;;;4937931;29;20262;-79
2023/03/18 12:45:23;;;;;;;2.30;2.10;;;22.80;40.40;;;;;;4957910;29;20218;-79
2023/03/18 12:47:58;;;;;;;3.28;2.22;;;22.80;40.40;;;;;;4958424;28;20689;-79
2023/03/18 12:50:37;;;;;;;2.00;1.80;;;22.80;40.50;;;;;;4958075;29;20611;-79
2023/03/18 12:53:09;;;;;;;2.53;2.20;;;22.80;40.50;;;;;;4960170;28;20195;-78
2023/03/18 12:55:40;;;;;;;2.70;2.05;;;22.90;40.20;;;;;;4961647;29;20223;-79
2023/03/18 12:58:14;;;;;;;2.53;2.00;;;22.80;40.10;;;;;;4962274;28;20210;-79
2023/03/18 13:03:49;;;;;;;2.38;1.88;;;22.80;39.50;;;;;;4977500;23;20234;-58
2023/03/18 13:06:18;;;;;;;3.63;2.30;;;22.80;39.60;;;;;;4955642;28;20365;-55
2023/03/18 13:09:05;;;;;;;2.35;2.03;;;22.80;40.00;;;;;;4955030;28;20369;-59
2023/03/18 13:11:49;;;;;;;2.75;1.95;;;22.80;39.80;;;;;;4954258;29;20290;-54
2023/03/18 13:14:24;;;;;;;3.65;1.80;;;22.80;38.90;;;;;;4956122;29;20601;-55
2023/03/18 13:16:57;;;;;;;2.50;1.98;;;22.80;37.90;;;;;;4956313;29;20528;-56
2023/03/18 13:19:37;;;;;;;3.38;1.80;;;22.80;38.30;;;;;;4957287;28;20242;-55
2023/03/18 13:22:14;;;;;;;4.07;2.08;;;22.80;37.20;;;;;;4980014;23;20288;-83